Time;durP1;ratioP1;P1;durP2;ratioP2;P2;SDS_P1;SDS_P2;PMS_P1;PMS_P2;Temp;Humidity;BMP_temperature;BMP_pressure;BME280_temperature;BME280_humidity;BME280_pressure;Samples;Min_cycle;Max_cycle;Signal;HPM_P1;HPM_P2
2023/01/22 00:00:22;;;;;;;1.70;1.15;;;15.70;67.20;;;;;;6215035;23;20352;-72
2023/01/22 00:02:48;;;;;;;1.70;1.33;;;15.60;67.20;;;;;;6216483;23;20062;-72
2023/01/22 00:05:13;;;;;;;1.98;1.45;;;15.60;67.30;;;;;;6216382;23;20232;-73
2023/01/22 00:07:39;;;;;;;3.40;1.83;;;15.60;67.30;;;;;;6215033;23;20380;-72
2023/01/22 00:10:05;;;;;;;1.80;1.48;;;15.60;67.30;;;;;;6216402;23;20007;-72
2023/01/22 00:12:30;;;;;;;2.50;1.20;;;15.60;67.40;;;;;;6216685;23;20000;-72
2023/01/22 00:14:56;;;;;;;3.25;1.27;;;15.60;67.40;;;;;;6216057;23;20008;-72
2023/01/22 00:17:22;;;;;;;1.70;1.52;;;15.60;67.50;;;;;;6214768;23;20344;-72
2023/01/22 00:19:47;;;;;;;2.33;1.27;;;15.60;67.50;;;;;;6215784;23;19999;-72
2023/01/22 00:22:13;;;;;;;1.35;1.25;;;15.70;67.70;;;;;;6216262;23;20052;-72
2023/01/22 00:24:39;;;;;;;1.40;1.30;;;15.60;67.60;;;;;;6189675;23;20078;-72
2023/01/22 00:27:05;;;;;;;1.30;1.20;;;15.60;67.60;;;;;;6216242;23;20008;-73
2023/01/22 00:29:30;;;;;;;2.30;1.30;;;15.70;67.70;;;;;;6189942;23;20004;-73
2023/01/22 00:31:56;;;;;;;2.17;1.30;;;15.60;67.80;;;;;;6216243;23;20005;-72
2023/01/22 00:34:22;;;;;;;2.03;1.40;;;15.70;67.80;;;;;;6214724;23;20004;-72
2023/01/22 00:36:47;;;;;;;2.33;1.38;;;15.60;67.90;;;;;;6216135;23;20388;-72
2023/01/22 00:39:13;;;;;;;1.55;1.17;;;15.70;67.90;;;;;;6216184;23;20433;-72
2023/01/22 00:41:40;;;;;;;1.77;1.60;;;15.70;68.00;;;;;;6216001;23;20056;-72
2023/01/22 00:44:05;;;;;;;2.38;1.35;;;15.70;68.10;;;;;;6214758;23;20005;-72
2023/01/22 00:46:31;;;;;;;2.40;1.30;;;15.70;68.00;;;;;;6215802;23;20028;-72
2023/01/22 00:48:57;;;;;;;1.40;1.30;;;15.70;68.10;;;;;;6216069;23;20046;-72
2023/01/22 00:51:22;;;;;;;1.48;1.13;;;15.70;68.10;;;;;;6216064;23;20012;-72
2023/01/22 00:53:48;;;;;;;1.40;1.23;;;15.70;68.10;;;;;;6189431;23;20031;-72
2023/01/22 00:56:14;;;;;;;1.65;1.23;;;15.70;68.10;;;;;;6215965;23;20011;-72
2023/01/22 00:58:39;;;;;;;1.58;1.48;;;15.70;68.20;;;;;;6189551;23;20120;-72
2023/01/22 01:01:05;;;;;;;1.35;1.25;;;15.70;68.20;;;;;;6214492;23;20425;-72
2023/01/22 01:03:31;;;;;;;1.17;1.13;;;15.70;68.30;;;;;;6214586;23;20001;-73
2023/01/22 01:05:57;;;;;;;1.45;1.33;;;15.70;68.30;;;;;;6215755;23;20038;-72
2023/01/22 01:08:23;;;;;;;1.50;1.25;;;15.70;68.30;;;;;;6214341;23;20387;-72
2023/01/22 01:11:00;;;;;;;1.40;1.25;;;15.70;68.30;;;;;;6214386;23;20028;-72
2023/01/22 01:13:26;;;;;;;1.27;1.17;;;15.70;68.40;;;;;;6214668;23;20001;-72
2023/01/22 01:15:59;;;;;;;2.30;1.30;;;15.70;68.50;;;;;;6189032;23;20009;-72
2023/01/22 01:18:25;;;;;;;1.30;1.15;;;15.70;68.40;;;;;;6214351;23;20003;-72
2023/01/22 01:20:56;;;;;;;1.83;1.30;;;15.70;68.50;;;;;;6214278;23;20001;-72
2023/01/22 01:23:23;;;;;;;1.77;1.40;;;15.70;68.50;;;;;;6214267;23;20016;-72
2023/01/22 01:25:48;;;;;;;3.53;1.40;;;15.70;68.50;;;;;;6214286;23;20349;-72
2023/01/22 01:28:14;;;;;;;2.40;1.30;;;15.70;68.50;;;;;;6214381;23;20000;-72
2023/01/22 01:30:40;;;;;;;1.48;1.23;;;15.80;68.60;;;;;;6215483;23;20047;-72
2023/01/22 01:33:05;;;;;;;1.45;1.30;;;15.70;68.70;;;;;;6215579;23;20004;-72
2023/01/22 01:35:31;;;;;;;4.13;1.58;;;15.80;68.80;;;;;;6214639;23;20004;-72
2023/01/22 01:37:57;;;;;;;3.22;1.13;;;15.80;68.90;;;;;;6215530;23;20008;-72
2023/01/22 01:40:22;;;;;;;1.10;1.10;;;15.80;68.90;;;;;;6214343;23;19997;-72
2023/01/22 01:42:48;;;;;;;1.17;1.08;;;15.80;68.90;;;;;;6214072;23;20015;-72
2023/01/22 01:45:30;;;;;;;2.63;1.20;;;15.80;68.90;;;;;;6213823;23;20063;-72
2023/01/22 01:48:17;;;;;;;2.17;1.58;;;15.80;69.00;;;;;;6214183;23;20075;-72
2023/01/22 01:50:44;;;;;;;2.80;1.33;;;15.80;69.00;;;;;;6215303;23;20036;-72
2023/01/22 01:53:10;;;;;;;3.72;1.20;;;15.80;69.00;;;;;;6189214;23;20445;-72
2023/01/22 01:55:36;;;;;;;2.00;1.27;;;15.80;69.00;;;;;;6214005;23;20076;-72
2023/01/22 01:58:10;;;;;;;1.50;1.40;;;15.90;69.10;;;;;;6213932;23;20035;-72
2023/01/22 02:00:36;;;;;;;1.70;1.30;;;15.90;69.10;;;;;;6213852;23;20007;-72
2023/01/22 02:03:02;;;;;;;1.85;1.52;;;15.90;69.10;;;;;;6213782;23;20079;-72
2023/01/22 02:05:36;;;;;;;1.50;1.33;;;15.90;69.20;;;;;;6188983;23;20480;-72
2023/01/22 02:08:02;;;;;;;1.15;1.05;;;15.90;69.20;;;;;;6190805;23;20091;-72
2023/01/22 02:10:28;;;;;;;1.63;1.27;;;15.90;69.20;;;;;;6188944;23;20032;-72
2023/01/22 02:12:54;;;;;;;1.58;1.27;;;15.90;69.20;;;;;;6215403;23;20457;-72
2023/01/22 02:15:20;;;;;;;1.45;1.35;;;15.90;69.20;;;;;;6188342;23;20460;-72
2023/01/22 02:17:46;;;;;;;1.30;1.13;;;15.90;69.20;;;;;;6188564;23;20047;-72
2023/01/22 02:20:12;;;;;;;1.70;1.30;;;15.90;69.20;;;;;;6213657;23;20051;-72
2023/01/22 02:22:38;;;;;;;1.70;1.42;;;15.90;69.20;;;;;;6215013;23;20004;-72
2023/01/22 02:25:05;;;;;;;1.65;1.30;;;15.90;69.20;;;;;;6188888;23;20076;-72
2023/01/22 02:27:30;;;;;;;2.63;1.60;;;15.90;69.30;;;;;;6215254;23;20099;-72
2023/01/22 02:29:56;;;;;;;1.33;1.23;;;15.90;69.30;;;;;;6214649;23;19997;-72
2023/01/22 02:32:21;;;;;;;1.20;1.10;;;15.90;69.30;;;;;;6215170;23;20001;-72
2023/01/22 02:34:47;;;;;;;2.17;1.20;;;15.90;69.30;;;;;;6215052;23;20001;-72
2023/01/22 02:37:13;;;;;;;1.38;1.20;;;15.90;69.40;;;;;;6213442;23;20078;-72
2023/01/22 02:39:39;;;;;;;1.80;1.20;;;15.90;69.40;;;;;;6215175;23;20000;-72
2023/01/22 02:42:04;;;;;;;1.45;1.35;;;15.90;69.40;;;;;;6215029;23;20400;-72
2023/01/22 02:44:30;;;;;;;2.90;1.10;;;15.90;69.50;;;;;;6213268;23;20001;-72
2023/01/22 02:46:56;;;;;;;1.35;1.20;;;15.90;69.40;;;;;;6214998;23;20075;-72
2023/01/22 02:49:21;;;;;;;1.40;1.30;;;15.90;69.50;;;;;;6188391;23;20004;-73
2023/01/22 02:51:47;;;;;;;2.50;1.27;;;15.90;69.50;;;;;;6214920;23;20000;-72
2023/01/22 02:54:13;;;;;;;1.65;1.48;;;15.90;69.50;;;;;;6215060;23;20004;-72
2023/01/22 02:56:38;;;;;;;1.30;1.20;;;15.90;69.50;;;;;;6214860;23;20015;-72
2023/01/22 02:59:04;;;;;;;1.42;1.33;;;15.90;69.50;;;;;;6214719;23;20047;-72
2023/01/22 03:01:30;;;;;;;1.52;1.42;;;15.90;69.60;;;;;;6214985;23;20050;-72
2023/01/22 03:04:00;;;;;;;1.67;1.30;;;15.90;69.50;;;;;;6213287;23;20007;-72
2023/01/22 03:06:27;;;;;;;1.50;1.40;;;15.90;69.50;;;;;;6214913;23;20001;-72
2023/01/22 03:08:55;;;;;;;12.48;1.88;;;15.90;69.70;;;;;;6188410;23;20005;-72
2023/01/22 03:11:20;;;;;;;1.27;1.10;;;15.90;69.70;;;;;;6213219;23;20028;-72
2023/01/22 03:21:58;;;;;;;1.40;1.30;;;16.00;70.00;;;;;;6214687;23;20015;-72
2023/01/22 03:24:24;;;;;;;2.50;1.55;;;16.00;70.00;;;;;;6212974;23;20087;-72
2023/01/22 03:26:50;;;;;;;1.38;1.27;;;16.00;70.00;;;;;;6214404;23;20032;-72
2023/01/22 03:29:15;;;;;;;2.33;1.70;;;16.00;70.00;;;;;;6214433;23;20337;-72
2023/01/22 03:31:41;;;;;;;1.10;1.00;;;16.00;70.00;;;;;;6214414;23;20479;-72
2023/01/22 03:34:07;;;;;;;2.50;1.13;;;16.00;70.00;;;;;;6214435;23;20352;-72
2023/01/22 03:36:32;;;;;;;1.63;1.20;;;16.00;70.00;;;;;;6214462;23;20080;-72
2023/01/22 03:38:58;;;;;;;1.08;1.00;;;16.00;70.00;;;;;;6214506;23;19997;-72
2023/01/22 03:41:23;;;;;;;1.20;1.10;;;16.00;70.10;;;;;;6212915;23;20007;-72
2023/01/22 03:43:49;;;;;;;1.50;1.10;;;16.00;70.00;;;;;;6214567;23;20035;-73
2023/01/22 03:46:16;;;;;;;2.70;1.20;;;16.00;70.10;;;;;;6214491;23;20000;-73
2023/01/22 03:48:42;;;;;;;1.20;1.10;;;16.00;70.10;;;;;;6212921;23;20036;-73
2023/01/22 03:51:12;;;;;;;1.27;1.17;;;16.00;70.00;;;;;;6212845;23;20349;-73
2023/01/22 03:53:38;;;;;;;1.30;1.20;;;16.00;70.10;;;;;;6213241;23;20009;-73
2023/01/22 03:56:06;;;;;;;4.15;1.30;;;16.00;70.10;;;;;;6212623;23;20005;-73
2023/01/22 03:58:31;;;;;;;1.25;1.15;;;16.00;70.10;;;;;;6214342;23;20084;-73
2023/01/22 04:01:00;;;;;;;1.70;1.50;;;16.00;70.10;;;;;;6188126;23;20083;-73
2023/01/22 04:03:26;;;;;;;1.30;1.20;;;16.00;70.10;;;;;;6188313;23;20007;-73
2023/01/22 04:05:52;;;;;;;1.35;1.10;;;16.00;70.10;;;;;;6188088;23;20005;-73
2023/01/22 04:08:18;;;;;;;3.53;1.33;;;16.00;70.10;;;;;;6212863;23;20001;-73
2023/01/22 04:10:44;;;;;;;2.38;1.30;;;16.00;70.10;;;;;;6214314;23;20471;-73
2023/01/22 04:13:09;;;;;;;1.30;1.20;;;16.00;70.20;;;;;;6214284;23;20507;-72
2023/01/22 04:15:35;;;;;;;1.30;1.20;;;16.00;70.20;;;;;;6214335;23;20502;-72
2023/01/22 04:18:00;;;;;;;1.40;1.30;;;16.00;71.20;;;;;;6214151;23;20456;-72
2023/01/22 04:20:26;;;;;;;1.05;1.00;;;16.00;70.20;;;;;;6214308;23;20043;-72
2023/01/22 04:22:52;;;;;;;1.10;1.00;;;16.00;70.20;;;;;;6214176;23;20047;-72
2023/01/22 04:25:17;;;;;;;1.45;1.10;;;16.00;70.20;;;;;;6213944;23;20051;-72
2023/01/22 04:27:43;;;;;;;2.13;1.20;;;16.00;70.20;;;;;;6212923;23;20027;-72
2023/01/22 04:30:09;;;;;;;1.67;1.30;;;16.00;70.20;;;;;;6214212;23;20079;-72
2023/01/22 04:32:35;;;;;;;1.20;1.02;;;16.00;70.20;;;;;;6212806;23;20086;-72
2023/01/22 04:35:02;;;;;;;1.38;1.10;;;16.00;70.20;;;;;;6214144;23;20506;-72
2023/01/22 04:37:28;;;;;;;1.55;1.13;;;16.00;70.30;;;;;;6212922;23;20028;-72
2023/01/22 04:39:54;;;;;;;1.10;0.98;;;16.00;70.30;;;;;;6212348;23;20334;-72
2023/01/22 04:42:19;;;;;;;1.23;1.10;;;16.00;70.30;;;;;;6215452;23;20001;-72
2023/01/22 04:44:45;;;;;;;1.30;1.20;;;16.00;70.30;;;;;;6216207;23;20071;-72
2023/01/22 04:47:11;;;;;;;1.30;1.20;;;16.00;70.30;;;;;;6215970;23;20011;-72
2023/01/22 04:49:36;;;;;;;1.45;1.23;;;16.00;70.30;;;;;;6214668;23;20008;-72
2023/01/22 04:52:02;;;;;;;3.47;1.00;;;16.00;70.40;;;;;;6216297;23;20276;-72
2023/01/22 04:54:27;;;;;;;1.20;1.10;;;16.00;70.50;;;;;;6214418;23;20005;-72
2023/01/22 04:56:53;;;;;;;1.52;1.10;;;16.00;70.50;;;;;;6215946;23;20000;-72
2023/01/22 04:59:19;;;;;;;1.45;1.27;;;16.00;70.60;;;;;;6214267;23;19997;-72
2023/01/22 05:01:44;;;;;;;1.77;1.10;;;16.00;70.70;;;;;;6216043;23;20003;-72
2023/01/22 05:04:10;;;;;;;1.33;1.23;;;16.00;70.60;;;;;;6215904;23;20004;-72
2023/01/22 05:06:36;;;;;;;1.73;1.10;;;16.00;70.60;;;;;;6215981;23;20004;-72
2023/01/22 05:09:01;;;;;;;1.25;1.15;;;16.00;70.60;;;;;;6189258;23;20068;-72
2023/01/22 05:11:27;;;;;;;1.55;1.30;;;16.00;70.60;;;;;;6189441;23;20012;-72
2023/01/22 05:13:53;;;;;;;1.50;1.10;;;16.00;70.60;;;;;;6215750;23;20377;-72
2023/01/22 05:16:19;;;;;;;1.27;1.17;;;16.00;70.60;;;;;;6215809;23;20028;-72
2023/01/22 05:18:44;;;;;;;1.30;1.13;;;16.00;70.70;;;;;;6214553;23;20074;-73
2023/01/22 05:21:10;;;;;;;1.00;1.00;;;16.00;71.60;;;;;;6215584;23;20003;-73
2023/01/22 05:23:35;;;;;;;1.63;1.30;;;16.00;70.60;;;;;;6213752;23;20032;-72
2023/01/22 05:26:01;;;;;;;1.83;1.20;;;16.00;70.60;;;;;;6215733;23;20004;-72
2023/01/22 05:28:27;;;;;;;1.13;1.10;;;15.90;70.60;;;;;;6215741;23;20075;-72
2023/01/22 05:30:52;;;;;;;1.52;1.17;;;16.00;70.70;;;;;;6215812;23;20032;-72
2023/01/22 05:33:18;;;;;;;1.25;1.15;;;16.00;70.70;;;;;;6215693;23;20024;-72
2023/01/22 05:35:44;;;;;;;1.70;1.45;;;16.00;70.70;;;;;;6215371;23;20465;-72
2023/01/22 05:38:09;;;;;;;2.08;1.27;;;15.90;70.60;;;;;;6215506;23;20024;-72
2023/01/22 05:40:35;;;;;;;1.15;1.05;;;15.90;70.70;;;;;;6215600;23;20456;-72
2023/01/22 05:43:03;;;;;;;1.30;1.20;;;15.90;70.60;;;;;;6215645;23;19997;-72
2023/01/22 05:45:29;;;;;;;1.30;1.20;;;15.90;70.60;;;;;;6215813;23;20028;-72
2023/01/22 05:47:55;;;;;;;1.95;1.15;;;15.90;70.60;;;;;;6215689;23;20008;-72
2023/01/22 05:50:20;;;;;;;3.33;1.42;;;15.90;70.70;;;;;;6215294;23;20051;-72
2023/01/22 05:52:46;;;;;;;1.30;1.20;;;16.00;70.80;;;;;;6214974;23;20005;-71
2023/01/22 05:55:12;;;;;;;1.30;1.20;;;15.90;70.80;;;;;;6215285;23;20005;-71
2023/01/22 05:57:37;;;;;;;1.50;1.40;;;15.90;70.80;;;;;;6215675;23;20003;-72
2023/01/22 06:00:04;;;;;;;1.40;1.30;;;15.90;70.80;;;;;;6215127;23;19996;-72
2023/01/22 06:02:29;;;;;;;1.55;1.20;;;15.90;70.70;;;;;;6215397;23;20028;-72
2023/01/22 06:04:55;;;;;;;1.20;1.10;;;15.90;70.70;;;;;;6214139;23;19997;-71
2023/01/22 06:07:20;;;;;;;1.10;1.00;;;15.90;70.80;;;;;;6215068;23;20322;-72
2023/01/22 06:09:46;;;;;;;1.38;1.27;;;15.90;70.80;;;;;;6215216;23;20527;-72
2023/01/22 06:12:12;;;;;;;1.70;1.60;;;15.90;70.80;;;;;;6215497;23;20001;-72
2023/01/22 06:14:37;;;;;;;1.45;1.23;;;15.90;70.80;;;;;;6215268;23;20457;-72
2023/01/22 06:17:03;;;;;;;1.42;1.27;;;15.90;70.80;;;;;;6215057;23;20000;-72
2023/01/22 06:19:29;;;;;;;1.20;1.10;;;15.90;70.80;;;;;;6215227;23;20007;-72
2023/01/22 06:21:54;;;;;;;1.33;1.23;;;15.90;70.80;;;;;;6215028;23;20355;-72
2023/01/22 06:24:20;;;;;;;1.10;1.00;;;15.90;70.80;;;;;;6214879;23;20016;-72
2023/01/22 06:26:45;;;;;;;1.52;1.42;;;15.90;70.80;;;;;;6215234;23;20435;-72
2023/01/22 06:29:12;;;;;;;1.83;1.25;;;15.90;70.80;;;;;;6215046;23;20030;-72
2023/01/22 06:31:37;;;;;;;1.10;1.00;;;15.90;70.80;;;;;;6215413;23;20369;-72
2023/01/22 06:34:04;;;;;;;1.30;1.13;;;15.90;70.90;;;;;;6215207;23;20000;-72
2023/01/22 06:36:29;;;;;;;2.22;1.10;;;15.90;70.90;;;;;;6214785;23;20376;-72
2023/01/22 06:38:55;;;;;;;1.20;1.10;;;15.90;70.90;;;;;;6188900;23;20127;-72
2023/01/22 06:41:21;;;;;;;1.60;0.98;;;15.90;71.00;;;;;;6214886;23;20025;-72
2023/01/22 06:43:47;;;;;;;3.42;1.45;;;15.90;71.00;;;;;;6188670;23;20421;-72
2023/01/22 06:46:12;;;;;;;1.15;1.05;;;15.90;71.00;;;;;;6213469;23;20007;-72
2023/01/22 06:48:38;;;;;;;3.08;1.45;;;15.90;71.10;;;;;;6213597;23;20008;-72
2023/01/22 06:51:04;;;;;;;1.30;1.20;;;15.90;71.10;;;;;;6214810;23;20004;-72
2023/01/22 06:53:29;;;;;;;1.25;1.15;;;15.90;71.10;;;;;;6213312;23;20004;-72
2023/01/22 06:55:58;;;;;;;1.20;1.10;;;15.90;71.10;;;;;;6214676;23;20001;-72
2023/01/22 06:58:23;;;;;;;1.52;1.15;;;15.90;71.10;;;;;;6213403;23;20007;-72
2023/01/22 07:00:49;;;;;;;1.52;1.42;;;15.90;71.10;;;;;;6214982;23;20079;-72
2023/01/22 07:03:14;;;;;;;1.30;1.20;;;15.90;71.10;;;;;;6213328;23;20393;-72
2023/01/22 07:05:40;;;;;;;1.20;1.10;;;15.90;71.10;;;;;;6214534;23;20024;-72
2023/01/22 07:08:06;;;;;;;1.10;1.00;;;15.90;71.10;;;;;;6214884;23;20468;-72
2023/01/22 07:10:31;;;;;;;1.20;1.10;;;15.90;71.10;;;;;;6215030;23;20007;-71
2023/01/22 07:12:58;;;;;;;1.33;1.20;;;15.90;71.10;;;;;;6214879;23;20008;-71
2023/01/22 07:15:24;;;;;;;1.10;1.00;;;15.90;71.10;;;;;;6188332;23;20073;-72
2023/01/22 07:17:51;;;;;;;1.27;1.17;;;15.90;71.10;;;;;;6214777;23;20000;-72
2023/01/22 07:20:17;;;;;;;1.00;1.00;;;15.90;71.10;;;;;;6213030;23;20000;-71
2023/01/22 07:22:43;;;;;;;1.33;1.23;;;15.90;71.10;;;;;;6214633;23;20000;-71
2023/01/22 07:25:08;;;;;;;1.38;1.20;;;15.90;71.10;;;;;;6214568;23;20027;-72
2023/01/22 07:27:35;;;;;;;1.20;1.10;;;15.90;71.10;;;;;;6214630;23;20400;-72
2023/01/22 07:30:01;;;;;;;1.58;1.10;;;15.90;71.10;;;;;;6214626;23;20087;-72
2023/01/22 07:32:26;;;;;;;1.83;1.25;;;15.90;71.10;;;;;;6213038;23;20028;-72
2023/01/22 07:34:52;;;;;;;1.67;1.30;;;15.90;71.10;;;;;;6214750;23;20000;-72
2023/01/22 07:37:18;;;;;;;1.10;1.10;;;15.90;71.10;;;;;;6214255;23;20034;-72
2023/01/22 07:39:43;;;;;;;1.10;1.00;;;15.90;71.10;;;;;;6214672;23;20000;-73
2023/01/22 07:42:10;;;;;;;2.30;1.10;;;15.90;71.10;;;;;;6214501;23;20071;-73
2023/01/22 07:44:39;;;;;;;1.15;1.13;;;15.90;71.10;;;;;;6214603;23;19997;-72
2023/01/22 07:47:05;;;;;;;1.30;1.20;;;15.90;71.10;;;;;;6214196;23;20396;-73
2023/01/22 07:49:30;;;;;;;1.00;1.00;;;15.90;71.10;;;;;;6212972;23;20028;-73
2023/01/22 07:51:56;;;;;;;1.20;1.10;;;15.90;71.10;;;;;;6212978;23;20075;-72
2023/01/22 07:54:22;;;;;;;1.17;1.08;;;15.90;71.10;;;;;;6214395;23;20000;-72
2023/01/22 07:56:48;;;;;;;1.30;1.17;;;15.90;71.10;;;;;;6214515;23;20008;-73
2023/01/22 07:59:13;;;;;;;1.40;1.10;;;15.90;71.10;;;;;;6214276;23;20000;-72
2023/01/22 08:01:39;;;;;;;0.93;0.93;;;15.90;71.10;;;;;;6214278;23;20453;-72
2023/01/22 08:04:05;;;;;;;0.80;0.80;;;15.90;71.10;;;;;;6214599;23;19997;-72
2023/01/22 08:06:30;;;;;;;1.20;1.10;;;15.90;71.10;;;;;;6214164;23;20001;-73
2023/01/22 08:08:58;;;;;;;1.25;1.05;;;15.90;71.10;;;;;;6214966;23;20051;-72
2023/01/22 08:11:24;;;;;;;1.40;1.20;;;15.90;71.10;;;;;;6213444;23;20076;-72
2023/01/22 08:13:50;;;;;;;0.90;0.90;;;15.90;71.10;;;;;;6209978;23;20005;-72
2023/01/22 08:16:15;;;;;;;1.30;1.20;;;15.80;71.10;;;;;;6213046;23;20326;-72
2023/01/22 08:18:41;;;;;;;1.20;1.15;;;15.90;71.20;;;;;;6214980;23;20001;-72
2023/01/22 08:21:06;;;;;;;1.30;1.20;;;15.80;71.10;;;;;;6213415;23;20433;-72
2023/01/22 08:23:32;;;;;;;1.30;1.20;;;15.90;71.10;;;;;;6214707;23;20009;-72
2023/01/22 08:26:02;;;;;;;4.70;1.40;;;15.90;71.10;;;;;;6188668;23;20059;-72
2023/01/22 08:28:28;;;;;;;1.15;1.05;;;15.90;71.10;;;;;;6213537;23;20475;-72
2023/01/22 08:30:58;;;;;;;1.58;1.20;;;15.90;71.00;;;;;;6188462;23;20004;-72
2023/01/22 08:33:24;;;;;;;1.35;1.20;;;15.90;71.00;;;;;;6213362;23;20012;-72
2023/01/22 08:35:50;;;;;;;1.33;1.23;;;15.90;71.10;;;;;;6213416;23;20125;-72
2023/01/22 08:38:15;;;;;;;3.28;1.45;;;15.90;71.00;;;;;;6213373;23;20642;-72
2023/01/22 08:40:41;;;;;;;1.63;1.13;;;15.90;71.10;;;;;;6214798;23;20032;-72
2023/01/22 08:43:07;;;;;;;1.40;1.30;;;15.90;71.00;;;;;;6214810;23;19997;-72
2023/01/22 08:45:32;;;;;;;1.23;1.13;;;15.90;71.10;;;;;;6214576;23;19997;-73
2023/01/22 08:47:59;;;;;;;4.50;1.50;;;15.80;70.80;;;;;;6214606;23;20047;-72
2023/01/22 08:50:25;;;;;;;1.83;1.30;;;15.80;70.80;;;;;;6213253;23;20005;-72
2023/01/22 08:52:51;;;;;;;4.13;1.40;;;15.90;70.70;;;;;;6213393;23;19997;-72
2023/01/22 08:55:17;;;;;;;2.08;1.48;;;15.80;70.60;;;;;;6188144;23;20008;-72
2023/01/22 08:57:42;;;;;;;2.78;1.48;;;15.90;70.60;;;;;;6214651;23;20001;-72
2023/01/22 09:00:10;;;;;;;1.52;1.30;;;15.90;70.50;;;;;;6213482;23;20001;-72
2023/01/22 09:02:35;;;;;;;1.67;1.52;;;15.90;70.50;;;;;;6214522;23;20001;-72
2023/01/22 09:05:01;;;;;;;2.10;1.25;;;15.80;70.40;;;;;;6214624;23;20076;-72
2023/01/22 09:07:26;;;;;;;1.85;1.20;;;15.90;70.50;;;;;;6213132;23;20001;-72
2023/01/22 09:09:52;;;;;;;1.50;1.20;;;15.90;70.50;;;;;;6214490;23;20039;-72
2023/01/22 09:12:18;;;;;;;2.08;1.30;;;15.90;70.50;;;;;;6213068;23;20010;-72
2023/01/22 09:14:43;;;;;;;2.22;1.65;;;15.90;70.50;;;;;;6212647;23;20009;-72
2023/01/22 09:17:09;;;;;;;1.90;1.40;;;15.90;70.50;;;;;;6214574;23;20008;-72
2023/01/22 09:19:34;;;;;;;2.10;1.40;;;15.90;70.50;;;;;;6214425;23;20083;-72
2023/01/22 09:22:05;;;;;;;1.90;1.40;;;15.90;70.50;;;;;;6214358;23;20000;-72
2023/01/22 09:24:31;;;;;;;2.45;1.40;;;15.90;70.60;;;;;;6214275;23;20017;-72
2023/01/22 09:26:57;;;;;;;2.58;1.33;;;15.90;70.50;;;;;;6214552;23;20015;-72
2023/01/22 09:29:23;;;;;;;1.70;1.48;;;15.90;70.60;;;;;;6213512;23;20004;-73
2023/01/22 09:31:49;;;;;;;1.25;1.15;;;15.90;71.60;;;;;;6214379;23;20005;-72
2023/01/22 09:34:15;;;;;;;1.48;1.30;;;15.90;70.60;;;;;;6212858;23;20004;-72
2023/01/22 09:36:42;;;;;;;3.13;1.20;;;15.90;70.60;;;;;;6214144;23;20039;-72
2023/01/22 09:39:08;;;;;;;1.70;1.20;;;15.90;70.70;;;;;;6212992;23;19997;-72
2023/01/22 09:41:35;;;;;;;1.48;1.13;;;15.90;70.70;;;;;;6214220;23;20075;-72
2023/01/22 09:44:05;;;;;;;1.67;1.30;;;15.90;70.70;;;;;;6212431;23;20001;-72
2023/01/22 09:46:34;;;;;;;3.13;1.40;;;15.90;70.70;;;;;;6212644;23;20001;-72
2023/01/22 09:49:07;;;;;;;3.15;1.40;;;15.90;70.70;;;;;;6214342;23;20001;-73
2023/01/22 09:51:33;;;;;;;3.30;1.20;;;15.90;70.70;;;;;;6212607;23;20011;-72
2023/01/22 09:53:59;;;;;;;1.50;1.20;;;15.90;70.70;;;;;;6212836;23;20008;-72
2023/01/22 09:56:34;;;;;;;2.03;1.45;;;15.90;70.70;;;;;;6212376;23;20075;-72
2023/01/22 09:59:02;;;;;;;1.20;1.10;;;15.90;70.80;;;;;;6188559;23;20507;-72
2023/01/22 10:01:28;;;;;;;1.38;1.27;;;15.90;70.70;;;;;;6212706;23;20007;-72
2023/01/22 10:03:57;;;;;;;1.67;1.30;;;15.90;70.80;;;;;;6212654;23;20457;-72
2023/01/22 10:06:24;;;;;;;1.33;1.23;;;15.90;70.80;;;;;;6187957;23;20008;-72
2023/01/22 10:08:57;;;;;;;2.53;1.30;;;15.90;70.80;;;;;;6212614;23;20005;-72
2023/01/22 10:11:23;;;;;;;1.83;1.30;;;15.90;70.80;;;;;;6212473;23;20012;-72
2023/01/22 10:13:52;;;;;;;1.67;1.50;;;15.90;70.80;;;;;;6212287;23;20314;-72
2023/01/22 10:16:18;;;;;;;1.30;1.20;;;15.90;70.80;;;;;;6188077;23;20000;-72
2023/01/22 10:18:45;;;;;;;1.40;1.30;;;15.90;70.80;;;;;;6213941;23;20001;-72
2023/01/22 10:21:18;;;;;;;2.38;1.20;;;15.90;70.80;;;;;;6212598;23;20075;-72
2023/01/22 10:23:43;;;;;;;;;;;15.90;70.80;;;;;;6214421;23;20008;-72
2023/01/22 10:26:23;;;;;;;2.47;1.17;;;15.90;70.80;;;;;;6212692;23;19951;-72
2023/01/22 10:28:56;;;;;;;4.22;1.00;;;15.90;70.80;;;;;;6189508;23;20075;-72
2023/01/22 10:31:22;;;;;;;;;;;15.90;70.90;;;;;;6189494;23;20410;-72
2023/01/22 10:33:53;;;;;;;2.85;1.40;;;15.90;71.90;;;;;;6213816;23;19935;-72
2023/01/22 10:36:19;;;;;;;1.33;1.13;;;15.90;70.90;;;;;;6188595;23;20005;-72
2023/01/22 10:38:45;;;;;;;1.83;1.27;;;15.90;71.00;;;;;;6212207;23;20619;-71
2023/01/22 10:41:16;;;;;;;1.95;1.40;;;15.90;71.00;;;;;;6208975;23;20036;-73
2023/01/22 10:43:42;;;;;;;2.15;1.88;;;15.90;70.10;;;;;;6211459;23;20322;-72
2023/01/22 10:46:22;;;;;;;1.95;1.85;;;15.90;67.40;;;;;;6213346;23;20511;-72
2023/01/22 10:49:07;;;;;;;1.90;1.80;;;15.90;67.40;;;;;;6212002;23;20005;-71
2023/01/22 10:51:37;;;;;;;2.25;1.50;;;15.80;67.70;;;;;;6186811;23;20396;-71
2023/01/22 10:54:03;;;;;;;3.35;1.85;;;15.90;68.00;;;;;;6186362;23;20015;-73
2023/01/22 10:56:33;;;;;;;6.18;1.90;;;16.00;66.90;;;;;;6211017;23;20071;-71
2023/01/22 10:59:01;;;;;;;5.35;2.20;;;16.00;67.00;;;;;;6210728;23;20452;-71
2023/01/22 11:01:38;;;;;;;4.47;1.60;;;16.10;66.90;;;;;;6187573;23;19997;-72
2023/01/22 11:04:31;;;;;;;6.05;1.60;;;16.10;66.00;;;;;;6188430;23;20056;-72
2023/01/22 11:07:03;;;;;;;3.38;1.70;;;16.20;65.70;;;;;;6208380;23;20005;-71
2023/01/22 11:10:04;;;;;;;1.95;1.63;;;16.30;65.30;;;;;;6189083;23;20001;-72
2023/01/22 11:12:36;;;;;;;2.95;1.70;;;16.40;64.70;;;;;;6093361;23;20085;-72
2023/01/22 11:15:08;;;;;;;;;;;16.50;64.10;;;;;;6070993;23;20010;-72
2023/01/22 11:17:37;;;;;;;4.18;1.60;;;16.60;63.90;;;;;;6093482;23;19905;-72
2023/01/22 11:20:24;;;;;;;1.63;1.52;;;16.60;63.70;;;;;;6069725;23;20030;-72
2023/01/22 11:23:16;;;;;;;2.72;1.70;;;16.70;63.40;;;;;;6092939;23;20019;-72
2023/01/22 11:26:20;;;;;;;3.30;1.65;;;16.80;63.20;;;;;;6093021;23;20046;-72
2023/01/22 11:29:06;;;;;;;2.30;1.90;;;16.80;62.80;;;;;;6067231;23;20044;-72
2023/01/22 11:31:58;;;;;;;2.42;1.90;;;16.90;62.60;;;;;;6069553;23;20010;-72
2023/01/22 11:34:43;;;;;;;1.85;1.52;;;17.00;62.20;;;;;;6093347;23;20479;-72
2023/01/22 11:37:20;;;;;;;2.30;1.70;;;17.10;62.20;;;;;;6070029;23;20006;-72
2023/01/22 11:40:33;;;;;;;3.10;1.60;;;17.10;62.00;;;;;;6069055;23;20009;-73
2023/01/22 11:43:09;;;;;;;2.70;1.38;;;17.20;61.60;;;;;;6035987;23;20010;-72
2023/01/22 11:45:55;;;;;;;3.38;1.67;;;17.30;61.50;;;;;;6016466;23;20007;-72
2023/01/22 11:48:56;;;;;;;2.08;1.70;;;17.30;61.20;;;;;;6064604;23;20015;-73
2023/01/22 11:51:25;;;;;;;1.95;1.73;;;17.40;60.90;;;;;;5978961;24;20031;-72
2023/01/22 11:54:20;;;;;;;2.13;1.80;;;17.40;61.00;;;;;;5978984;24;20035;-72
2023/01/22 11:56:55;;;;;;;1.63;1.52;;;17.50;60.70;;;;;;5979434;24;20024;-72
2023/01/22 11:59:23;;;;;;;2.03;1.50;;;17.50;60.70;;;;;;5977966;24;20015;-72
2023/01/22 12:02:11;;;;;;;1.77;1.50;;;17.60;60.50;;;;;;5979184;24;20008;-72
2023/01/22 12:05:07;;;;;;;1.60;1.50;;;17.60;60.40;;;;;;5955955;24;20377;-71
2023/01/22 12:07:50;;;;;;;2.45;1.83;;;17.70;60.10;;;;;;5979516;24;20075;-71
2023/01/22 12:10:24;;;;;;;3.25;1.90;;;17.80;60.00;;;;;;5979182;24;20009;-71
2023/01/22 12:12:53;;;;;;;1.90;1.42;;;17.80;60.00;;;;;;6007025;23;20010;-71
2023/01/22 12:15:22;;;;;;;1.98;1.60;;;17.90;59.80;;;;;;6122419;23;20013;-71
2023/01/22 12:18:15;;;;;;;2.35;1.50;;;17.90;59.70;;;;;;6098015;23;20006;-71
2023/01/22 12:21:20;;;;;;;2.50;1.50;;;17.90;59.60;;;;;;6122337;23;20045;-71
2023/01/22 12:24:14;;;;;;;2.40;1.80;;;18.00;59.50;;;;;;6122016;23;20018;-71
2023/01/22 12:26:44;;;;;;;1.88;1.73;;;18.00;59.10;;;;;;6212764;23;20019;-71
2023/01/22 12:29:12;;;;;;;2.10;1.70;;;18.10;59.30;;;;;;6188321;23;20361;-71
2023/01/22 12:32:07;;;;;;;1.52;1.27;;;18.10;59.30;;;;;;6212786;23;20004;-72
2023/01/22 12:35:01;;;;;;;1.58;1.48;;;18.10;60.10;;;;;;6189840;23;20007;-71
2023/01/22 12:37:43;;;;;;;1.55;1.45;;;18.20;59.00;;;;;;6189461;23;20005;-71
2023/01/22 12:40:39;;;;;;;1.75;1.42;;;18.20;59.10;;;;;;6213047;23;20001;-70
2023/01/22 12:43:05;;;;;;;1.55;1.45;;;18.20;58.80;;;;;;6214165;23;19997;-70
2023/01/22 12:45:49;;;;;;;1.65;1.55;;;18.30;58.80;;;;;;6212902;23;20004;-69
2023/01/22 12:48:36;;;;;;;1.42;1.33;;;18.30;58.80;;;;;;6214364;23;20000;-69
2023/01/22 12:51:02;;;;;;;1.95;1.58;;;18.40;58.60;;;;;;6212580;23;20007;-69
2023/01/22 12:53:29;;;;;;;2.03;1.83;;;18.40;58.70;;;;;;6214179;23;20079;-69
2023/01/22 12:56:03;;;;;;;2.38;1.58;;;18.40;58.70;;;;;;6187767;23;20008;-69
2023/01/22 12:58:31;;;;;;;1.98;1.50;;;18.40;58.50;;;;;;6214299;23;20487;-69
2023/01/22 13:01:20;;;;;;;1.70;1.60;;;18.40;58.60;;;;;;6212787;23;20341;-69
2023/01/22 13:03:58;;;;;;;1.40;1.30;;;18.40;58.50;;;;;;6215682;23;20004;-69